sensor_id;sensor_type;location;lat;lon;timestamp;pressure;altitude;pressure_sealevel;temperature;humidity
57374;BME280;43964;53.890;25.340;2022-12-13T00:04:21;1004.8;;;0.5;70.4
57374;BME280;43964;53.890;25.340;2022-12-13T00:09:30;1004.8;;;0.6;70.4
57374;BME280;43964;53.890;25.340;2022-12-13T00:14:20;1004.8;;;0.6;70.5
57374;BME280;43964;53.890;25.340;2022-12-13T00:19:28;1004.9;;;0.6;70.6
57374;BME280;43964;53.890;25.340;2022-12-13T00:25:05;1004.9;;;0.6;70.6
57374;BME280;43964;53.890;25.340;2022-12-13T00:29:40;1005;;;0.8;70.5
57374;BME280;43964;53.890;25.340;2022-12-13T00:34:32;1005;;;0.8;70.4
57374;BME280;43964;53.890;25.340;2022-12-13T00:39:28;1004.9;;;0.8;70.4
57374;BME280;43964;53.890;25.340;2022-12-13T00:44:30;1004.9;;;0.9;70.4
57374;BME280;43964;53.890;25.340;2022-12-13T00:49:32;1005;;;0.9;70.5
57374;BME280;43964;53.890;25.340;2022-12-13T00:54:20;1005;;;1;70.6
57374;BME280;43964;53.890;25.340;2022-12-13T00:59:20;1005.1;;;1;70.6
57374;BME280;43964;53.890;25.340;2022-12-13T01:04:32;1005.1;;;1.1;70.6
57374;BME280;43964;53.890;25.340;2022-12-13T01:09:32;1005.1;;;1.2;70.6
57374;BME280;43964;53.890;25.340;2022-12-13T01:14:33;1005.1;;;1.2;70.5
57374;BME280;43964;53.890;25.340;2022-12-13T01:19:25;1005;;;1.3;70.4
57374;BME280;43964;53.890;25.340;2022-12-13T01:24:24;1005;;;1.3;70.3
57374;BME280;43964;53.890;25.340;2022-12-13T01:29:34;1005;;;1.4;70.2
57374;BME280;43964;53.890;25.340;2022-12-13T01:34:46;1005.1;;;1.4;70.1
57374;BME280;43964;53.890;25.340;2022-12-13T01:39:44;1005.1;;;1.4;70
57374;BME280;43964;53.890;25.340;2022-12-13T01:44:57;1005.1;;;1.4;69.9
57374;BME280;43964;53.890;25.340;2022-12-13T01:49:34;1005.2;;;1.4;69.9
57374;BME280;43964;53.890;25.340;2022-12-13T01:54:26;1005.1;;;1.4;69.9
57374;BME280;43964;53.890;25.340;2022-12-13T01:59:24;1005.2;;;1.5;69.8
57374;BME280;43964;53.890;25.340;2022-12-13T02:04:33;1005.2;;;1.5;69.8
57374;BME280;43964;53.890;25.340;2022-12-13T02:09:34;1005.2;;;1.5;69.7
57374;BME280;43964;53.890;25.340;2022-12-13T02:14:24;1005.2;;;1.5;69.6
57374;BME280;43964;53.890;25.340;2022-12-13T02:19:39;1005.2;;;1.5;69.5
57374;BME280;43964;53.890;25.340;2022-12-13T02:24:51;1005.3;;;1.6;69.5
57374;BME280;43964;53.890;25.340;2022-12-13T02:29:42;1005.3;;;1.6;69.4
57374;BME280;43964;53.890;25.340;2022-12-13T02:34:25;1005.3;;;1.6;69.4
57374;BME280;43964;53.890;25.340;2022-12-13T02:39:26;1005.4;;;1.6;69.2
57374;BME280;43964;53.890;25.340;2022-12-13T02:44:25;1005.4;;;1.6;69
57374;BME280;43964;53.890;25.340;2022-12-13T02:49:36;1005.5;;;1.6;69
57374;BME280;43964;53.890;25.340;2022-12-13T02:54:24;1005.5;;;1.6;69
57374;BME280;43964;53.890;25.340;2022-12-13T02:59:35;1005.5;;;1.6;68.9
57374;BME280;43964;53.890;25.340;2022-12-13T03:04:35;1005.5;;;1.6;68.9
57374;BME280;43964;53.890;25.340;2022-12-13T03:09:27;1005.6;;;1.7;68.8
57374;BME280;43964;53.890;25.340;2022-12-13T03:14:24;1005.7;;;1.7;68.8
57374;BME280;43964;53.890;25.340;2022-12-13T03:19:44;1005.7;;;1.7;68.7
57374;BME280;43964;53.890;25.340;2022-12-13T03:24:34;1005.7;;;1.7;68.6
57374;BME280;43964;53.890;25.340;2022-12-13T03:29:46;1005.7;;;1.7;68.6
57374;BME280;43964;53.890;25.340;2022-12-13T03:34:24;1005.8;;;1.7;68.4
57374;BME280;43964;53.890;25.340;2022-12-13T03:39:42;1005.8;;;1.7;68.2
57374;BME280;43964;53.890;25.340;2022-12-13T03:44:48;1005.9;;;1.7;68.1
57374;BME280;43964;53.890;25.340;2022-12-13T03:49:48;1005.9;;;1.7;68
57374;BME280;43964;53.890;25.340;2022-12-13T03:54:42;1006;;;1.6;67.9
57374;BME280;43964;53.890;25.340;2022-12-13T03:59:25;1006;;;1.6;67.9
57374;BME280;43964;53.890;25.340;2022-12-13T04:04:32;1006.1;;;1.6;67.9
57374;BME280;43964;53.890;25.340;2022-12-13T04:09:42;1006.2;;;1.6;67.9
57374;BME280;43964;53.890;25.340;2022-12-13T04:14:34;1006.2;;;1.6;67.8
57374;BME280;43964;53.890;25.340;2022-12-13T04:19:44;1006.3;;;1.5;67.7
57374;BME280;43964;53.890;25.340;2022-12-13T04:24:36;1006.3;;;1.5;67.7
57374;BME280;43964;53.890;25.340;2022-12-13T04:29:46;1006.4;;;1.5;67.7
57374;BME280;43964;53.890;25.340;2022-12-13T04:34:49;1006.4;;;1.5;67.7
57374;BME280;43964;53.890;25.340;2022-12-13T04:39:34;1006.5;;;1.5;67.6
57374;BME280;43964;53.890;25.340;2022-12-13T04:44:25;1006.6;;;1.5;67.5
57374;BME280;43964;53.890;25.340;2022-12-13T04:49:36;1006.6;;;1.4;67.4
57374;BME280;43964;53.890;25.340;2022-12-13T04:54:45;1006.6;;;1.4;67.4
57374;BME280;43964;53.890;25.340;2022-12-13T04:59:25;1006.6;;;1.4;67.2
57374;BME280;43964;53.890;25.340;2022-12-13T05:04:31;1006.7;;;1.4;67
57374;BME280;43964;53.890;25.340;2022-12-13T05:09:32;1006.7;;;1.3;67
57374;BME280;43964;53.890;25.340;2022-12-13T05:14:27;1006.7;;;1.2;66.8
57374;BME280;43964;53.890;25.340;2022-12-13T05:19:35;1006.7;;;1.3;67
57374;BME280;43964;53.890;25.340;2022-12-13T05:24:37;1006.8;;;1.3;67
57374;BME280;43964;53.890;25.340;2022-12-13T05:29:45;1006.8;;;1.3;67
57374;BME280;43964;53.890;25.340;2022-12-13T05:34:25;1006.9;;;1.2;66.9
57374;BME280;43964;53.890;25.340;2022-12-13T05:39:25;1006.9;;;1.1;66.9
57374;BME280;43964;53.890;25.340;2022-12-13T05:44:25;1007;;;1;66.9
57374;BME280;43964;53.890;25.340;2022-12-13T05:49:25;1007.1;;;1.1;66.9
57374;BME280;43964;53.890;25.340;2022-12-13T05:54:25;1007.2;;;1.1;66.8
57374;BME280;43964;53.890;25.340;2022-12-13T05:59:25;1007.3;;;1.1;66.8
57374;BME280;43964;53.890;25.340;2022-12-13T06:04:45;1007.3;;;1.1;66.8
57374;BME280;43964;53.890;25.340;2022-12-13T06:09:25;1007.4;;;1;66.8
57374;BME280;43964;53.890;25.340;2022-12-13T06:14:35;1007.5;;;1;66.9
57374;BME280;43964;53.890;25.340;2022-12-13T06:19:45;1007.6;;;0.9;66.9
57374;BME280;43964;53.890;25.340;2022-12-13T06:24:49;1007.7;;;1;66.8
57374;BME280;43964;53.890;25.340;2022-12-13T06:29:45;1007.8;;;1;66.7
57374;BME280;43964;53.890;25.340;2022-12-13T06:34:25;1007.8;;;1;66.6
57374;BME280;43964;53.890;25.340;2022-12-13T06:39:25;1007.9;;;0.9;66.6
57374;BME280;43964;53.890;25.340;2022-12-13T06:44:37;1008;;;0.9;66.6
57374;BME280;43964;53.890;25.340;2022-12-13T06:49:33;1008.1;;;0.9;66.6
57374;BME280;43964;53.890;25.340;2022-12-13T06:54:35;1008.2;;;0.9;66.5
57374;BME280;43964;53.890;25.340;2022-12-13T06:59:25;1008.2;;;0.9;66.4
57374;BME280;43964;53.890;25.340;2022-12-13T07:04:37;1008.3;;;0.9;66.3
57374;BME280;43964;53.890;25.340;2022-12-13T07:09:25;1008.4;;;0.9;66
57374;BME280;43964;53.890;25.340;2022-12-13T07:14:45;1008.5;;;0.8;65.9
57374;BME280;43964;53.890;25.340;2022-12-13T07:19:45;1008.7;;;0.7;65.8
57374;BME280;43964;53.890;25.340;2022-12-13T07:24:25;1008.7;;;0.7;65.9
57374;BME280;43964;53.890;25.340;2022-12-13T07:29:35;1008.9;;;0.7;66
57374;BME280;43964;53.890;25.340;2022-12-13T07:34:25;1008.9;;;0.8;65.9
57374;BME280;43964;53.890;25.340;2022-12-13T07:39:27;1009;;;0.8;65.9
57374;BME280;43964;53.890;25.340;2022-12-13T07:44:39;1009;;;0.7;65.8
57374;BME280;43964;53.890;25.340;2022-12-13T07:49:27;1009;;;0.7;65.8
57374;BME280;43964;53.890;25.340;2022-12-13T07:54:27;1009.1;;;0.7;65.6
57374;BME280;43964;53.890;25.340;2022-12-13T07:59:43;1009.1;;;0.8;65.4
57374;BME280;43964;53.890;25.340;2022-12-13T08:04:27;1009.3;;;0.8;65.1
57374;BME280;43964;53.890;25.340;2022-12-13T08:09:25;1009.4;;;0.9;65
57374;BME280;43964;53.890;25.340;2022-12-13T08:14:25;1009.4;;;0.9;64.9
57374;BME280;43964;53.890;25.340;2022-12-13T08:19:25;1009.5;;;0.9;64.9
57374;BME280;43964;53.890;25.340;2022-12-13T08:24:35;1009.6;;;0.9;64.9
57374;BME280;43964;53.890;25.340;2022-12-13T08:29:37;1009.6;;;0.9;64.7
57374;BME280;43964;53.890;25.340;2022-12-13T08:34:25;1009.6;;;0.9;64.7
57374;BME280;43964;53.890;25.340;2022-12-13T08:39:35;1009.7;;;1;64.4
57374;BME280;43964;53.890;25.340;2022-12-13T08:44:33;1009.8;;;1;64.2
57374;BME280;43964;53.890;25.340;2022-12-13T08:49:33;1009.9;;;1;64.1
57374;BME280;43964;53.890;25.340;2022-12-13T08:54:25;1010;;;1.1;64.1
57374;BME280;43964;53.890;25.340;2022-12-13T09:00:11;1010.1;;;1.1;64.1
57374;BME280;43964;53.890;25.340;2022-12-13T09:04:39;1010.1;;;1.1;64.1
57374;BME280;43964;53.890;25.340;2022-12-13T09:09:45;1010.1;;;1.1;64
57374;BME280;43964;53.890;25.340;2022-12-13T09:14:25;1010.1;;;1.1;63.7
57374;BME280;43964;53.890;25.340;2022-12-13T09:19:37;1010.1;;;1.1;63.6
57374;BME280;43964;53.890;25.340;2022-12-13T09:24:47;1010.2;;;1.2;63.6
57374;BME280;43964;53.890;25.340;2022-12-13T09:29:35;1010.2;;;1.3;63.4
57374;BME280;43964;53.890;25.340;2022-12-13T09:34:49;1010.3;;;1.2;63
57374;BME280;43964;53.890;25.340;2022-12-13T09:39:25;1010.3;;;1.3;62.8
57374;BME280;43964;53.890;25.340;2022-12-13T09:44:25;1010.3;;;1.4;62.6
57374;BME280;43964;53.890;25.340;2022-12-13T09:49:26;1010.3;;;1.5;62.9
57374;BME280;43964;53.890;25.340;2022-12-13T09:54:25;1010.3;;;1.5;62.8
57374;BME280;43964;53.890;25.340;2022-12-13T09:59:43;1010.4;;;1.5;62.4
57374;BME280;43964;53.890;25.340;2022-12-13T10:04:26;1010.5;;;1.6;62.1
57374;BME280;43964;53.890;25.340;2022-12-13T10:09:25;1010.6;;;1.5;61.9
57374;BME280;43964;53.890;25.340;2022-12-13T10:14:26;1010.6;;;1.6;61.9
57374;BME280;43964;53.890;25.340;2022-12-13T10:19:38;1010.7;;;1.6;61.6
57374;BME280;43964;53.890;25.340;2022-12-13T10:24:25;1010.8;;;1.5;61.5
57374;BME280;43964;53.890;25.340;2022-12-13T10:29:33;1010.8;;;1.4;61.7
57374;BME280;43964;53.890;25.340;2022-12-13T10:34:27;1010.9;;;1.2;61.5
57374;BME280;43964;53.890;25.340;2022-12-13T10:39:41;1010.9;;;1.2;61.8
57374;BME280;43964;53.890;25.340;2022-12-13T10:44:25;1010.9;;;1.1;61.7
57374;BME280;43964;53.890;25.340;2022-12-13T10:49:26;1011;;;1.1;61.9
57374;BME280;43964;53.890;25.340;2022-12-13T10:54:35;1011;;;1.2;61.8
57374;BME280;43964;53.890;25.340;2022-12-13T10:59:33;1011.1;;;1.3;61.8
57374;BME280;43964;53.890;25.340;2022-12-13T11:04:26;1011.1;;;1.3;61.8
57374;BME280;43964;53.890;25.340;2022-12-13T11:09:45;1011.2;;;1.3;61.6
57374;BME280;43964;53.890;25.340;2022-12-13T11:14:35;1011.2;;;1.3;61.5
57374;BME280;43964;53.890;25.340;2022-12-13T11:19:35;1011.2;;;1.2;61.5
57374;BME280;43964;53.890;25.340;2022-12-13T11:24:35;1011.3;;;1.2;61.6
57374;BME280;43964;53.890;25.340;2022-12-13T11:30:09;1011.3;;;1.1;61.6
57374;BME280;43964;53.890;25.340;2022-12-13T11:34:37;1011.4;;;1.1;61.7
57374;BME280;43964;53.890;25.340;2022-12-13T11:39:25;1011.4;;;1.1;61.7
57374;BME280;43964;53.890;25.340;2022-12-13T11:44:39;1011.5;;;1.2;61.7
57374;BME280;43964;53.890;25.340;2022-12-13T11:49:36;1011.5;;;1.2;61.7
57374;BME280;43964;53.890;25.340;2022-12-13T11:54:27;1011.5;;;1.2;61.6
57374;BME280;43964;53.890;25.340;2022-12-13T11:59:26;1011.6;;;1.2;61.5
57374;BME280;43964;53.890;25.340;2022-12-13T12:04:33;1011.6;;;1.2;61.4
57374;BME280;43964;53.890;25.340;2022-12-13T12:09:33;1011.7;;;1.2;61.2
57374;BME280;43964;53.890;25.340;2022-12-13T12:14:28;1011.7;;;1.2;61.3
57374;BME280;43964;53.890;25.340;2022-12-13T12:19:34;1011.8;;;1.2;61.3
57374;BME280;43964;53.890;25.340;2022-12-13T12:25:11;1011.9;;;1.1;61.3
57374;BME280;43964;53.890;25.340;2022-12-13T12:29:44;1011.9;;;1.2;61.3
57374;BME280;43964;53.890;25.340;2022-12-13T12:34:29;1012;;;1.1;61.1
57374;BME280;43964;53.890;25.340;2022-12-13T12:39:37;1012.1;;;1.1;61.1
57374;BME280;43964;53.890;25.340;2022-12-13T12:44:28;1012.1;;;1.1;61.2
57374;BME280;43964;53.890;25.340;2022-12-13T12:49:28;1012.2;;;1;61.2
57374;BME280;43964;53.890;25.340;2022-12-13T12:54:29;1012.3;;;1;61.3
57374;BME280;43964;53.890;25.340;2022-12-13T12:59:36;1012.3;;;0.9;61.2
57374;BME280;43964;53.890;25.340;2022-12-13T13:04:25;1012.4;;;0.9;61.3
57374;BME280;43964;53.890;25.340;2022-12-13T13:09:25;1012.5;;;0.9;61.3
57374;BME280;43964;53.890;25.340;2022-12-13T13:14:37;1012.5;;;0.9;61.3
57374;BME280;43964;53.890;25.340;2022-12-13T13:20:10;1012.5;;;0.9;61.3
57374;BME280;43964;53.890;25.340;2022-12-13T13:24:25;1012.6;;;0.8;61.2
57374;BME280;43964;53.890;25.340;2022-12-13T13:29:31;1012.6;;;0.9;61.3
57374;BME280;43964;53.890;25.340;2022-12-13T13:34:37;1012.6;;;0.8;61.4
57374;BME280;43964;53.890;25.340;2022-12-13T13:39:57;1012.7;;;0.7;61.4
57374;BME280;43964;53.890;25.340;2022-12-13T13:49:49;1012.7;;;0.7;61.5
57374;BME280;43964;53.890;25.340;2022-12-13T13:54:27;1012.7;;;0.6;61.5
57374;BME280;43964;53.890;25.340;2022-12-13T13:59:46;1012.8;;;0.5;61.5
57374;BME280;43964;53.890;25.340;2022-12-13T14:04:51;1012.9;;;0.5;61.5
57374;BME280;43964;53.890;25.340;2022-12-13T14:09:52;1013;;;0.5;61.6
57374;BME280;43964;53.890;25.340;2022-12-13T14:19:45;1013.1;;;0.5;61.7
57374;BME280;43964;53.890;25.340;2022-12-13T14:24:40;1013.1;;;0.4;61.7
57374;BME280;43964;53.890;25.340;2022-12-13T14:29:36;1013.2;;;0.3;61.8
57374;BME280;43964;53.890;25.340;2022-12-13T14:34:39;1013.2;;;0.2;62
57374;BME280;43964;53.890;25.340;2022-12-13T14:39:37;1013.2;;;0.2;62.1
57374;BME280;43964;53.890;25.340;2022-12-13T14:44:26;1013.2;;;0.1;62.2
57374;BME280;43964;53.890;25.340;2022-12-13T14:49:38;1013.3;;;0.2;62.4
57374;BME280;43964;53.890;25.340;2022-12-13T14:54:47;1013.3;;;0.2;62.4
57374;BME280;43964;53.890;25.340;2022-12-13T14:59:37;1013.3;;;0.2;62.5
57374;BME280;43964;53.890;25.340;2022-12-13T15:04:45;1013.3;;;0.2;62.6
57374;BME280;43964;53.890;25.340;2022-12-13T15:09:25;1013.4;;;0.2;62.5
57374;BME280;43964;53.890;25.340;2022-12-13T15:14:35;1013.4;;;0.1;62.6
57374;BME280;43964;53.890;25.340;2022-12-13T15:19:25;1013.5;;;0.1;62.6
57374;BME280;43964;53.890;25.340;2022-12-13T15:24:33;1013.5;;;0.1;62.7
57374;BME280;43964;53.890;25.340;2022-12-13T15:29:26;1013.5;;;0.1;62.7
57374;BME280;43964;53.890;25.340;2022-12-13T15:34:33;1013.5;;;0.1;62.8
57374;BME280;43964;53.890;25.340;2022-12-13T15:54:25;1013.6;;;0.1;62.7
57374;BME280;43964;53.890;25.340;2022-12-13T15:59:45;1013.7;;;0.1;62.7
57374;BME280;43964;53.890;25.340;2022-12-13T16:04:25;1013.7;;;0;62.8
57374;BME280;43964;53.890;25.340;2022-12-13T16:09:49;1013.7;;;0;62.9
57374;BME280;43964;53.890;25.340;2022-12-13T16:14:26;1013.7;;;-0.1;62.9
57374;BME280;43964;53.890;25.340;2022-12-13T16:19:25;1013.8;;;-0.1;62.8
57374;BME280;43964;53.890;25.340;2022-12-13T16:24:25;1013.8;;;-0.1;62.9
57374;BME280;43964;53.890;25.340;2022-12-13T16:29:25;1013.8;;;-0.2;62.9
57374;BME280;43964;53.890;25.340;2022-12-13T16:34:25;1013.8;;;-0.4;63
57374;BME280;43964;53.890;25.340;2022-12-13T16:39:25;1013.8;;;-0.6;63
57374;BME280;43964;53.890;25.340;2022-12-13T16:44:45;1013.9;;;-0.7;63.1
57374;BME280;43964;53.890;25.340;2022-12-13T16:49:37;1013.9;;;-0.7;63.1
57374;BME280;43964;53.890;25.340;2022-12-13T16:54:35;1013.9;;;-0.6;63.1
57374;BME280;43964;53.890;25.340;2022-12-13T16:59:37;1014;;;-0.4;63.1
57374;BME280;43964;53.890;25.340;2022-12-13T17:04:25;1014;;;-0.4;63
57374;BME280;43964;53.890;25.340;2022-12-13T17:09:25;1014.1;;;-0.3;63
57374;BME280;43964;53.890;25.340;2022-12-13T17:14:25;1014.1;;;-0.3;63
57374;BME280;43964;53.890;25.340;2022-12-13T17:19:25;1014.1;;;-0.1;63
57374;BME280;43964;53.890;25.340;2022-12-13T17:24:33;1014.1;;;-0.1;63.1
57374;BME280;43964;53.890;25.340;2022-12-13T17:29:45;1014.1;;;0;63.1
57374;BME280;43964;53.890;25.340;2022-12-13T17:34:49;1014.1;;;0;63
57374;BME280;43964;53.890;25.340;2022-12-13T17:39:37;1014.1;;;0;63.1
57374;BME280;43964;53.890;25.340;2022-12-13T17:44:23;1014.2;;;0;63.1
57374;BME280;43964;53.890;25.340;2022-12-13T17:49:23;1014.2;;;0;63.1
57374;BME280;43964;53.890;25.340;2022-12-13T17:54:45;1014.2;;;0.1;63
57374;BME280;43964;53.890;25.340;2022-12-13T17:59:31;1014.3;;;0.1;63
57374;BME280;43964;53.890;25.340;2022-12-13T18:04:23;1014.4;;;0.2;62.9
57374;BME280;43964;53.890;25.340;2022-12-13T18:09:37;1014.4;;;0.2;62.9
57374;BME280;43964;53.890;25.340;2022-12-13T18:14:33;1014.4;;;0.1;63
57374;BME280;43964;53.890;25.340;2022-12-13T18:19:25;1014.5;;;0.1;63
57374;BME280;43964;53.890;25.340;2022-12-13T18:24:33;1014.5;;;0;62.9
57374;BME280;43964;53.890;25.340;2022-12-13T18:29:45;1014.5;;;-0.1;63
57374;BME280;43964;53.890;25.340;2022-12-13T18:34:25;1014.5;;;-0.1;63
57374;BME280;43964;53.890;25.340;2022-12-13T18:39:37;1014.5;;;-0.1;63
57374;BME280;43964;53.890;25.340;2022-12-13T18:44:25;1014.5;;;-0.2;63.1
57374;BME280;43964;53.890;25.340;2022-12-13T18:49:25;1014.6;;;-0.3;63.2
57374;BME280;43964;53.890;25.340;2022-12-13T18:54:25;1014.7;;;-0.3;63.2
57374;BME280;43964;53.890;25.340;2022-12-13T18:59:35;1014.8;;;-0.4;63.1
57374;BME280;43964;53.890;25.340;2022-12-13T19:04:59;1014.8;;;-0.3;63
57374;BME280;43964;53.890;25.340;2022-12-13T19:09:25;1014.8;;;-0.3;62.9
57374;BME280;43964;53.890;25.340;2022-12-13T19:14:49;1014.9;;;-0.3;62.9
57374;BME280;43964;53.890;25.340;2022-12-13T19:19:35;1015;;;-0.2;62.9
57374;BME280;43964;53.890;25.340;2022-12-13T19:24:26;1015;;;-0.1;62.8
57374;BME280;43964;53.890;25.340;2022-12-13T19:29:25;1015;;;-0.1;62.7
57374;BME280;43964;53.890;25.340;2022-12-13T19:34:25;1015;;;-0.2;62.8
57374;BME280;43964;53.890;25.340;2022-12-13T19:39:25;1015.1;;;-0.2;62.9
57374;BME280;43964;53.890;25.340;2022-12-13T19:44:25;1015.2;;;-0.2;62.9
57374;BME280;43964;53.890;25.340;2022-12-13T19:49:47;1015.2;;;-0.2;62.9
57374;BME280;43964;53.890;25.340;2022-12-13T19:54:25;1015.2;;;-0.1;62.8
57374;BME280;43964;53.890;25.340;2022-12-13T19:59:25;1015.2;;;0;62.8
57374;BME280;43964;53.890;25.340;2022-12-13T20:04:37;1015.3;;;0.1;62.7
57374;BME280;43964;53.890;25.340;2022-12-13T20:09:25;1015.3;;;0.2;62.7
57374;BME280;43964;53.890;25.340;2022-12-13T20:14:47;1015.3;;;0.2;62.7
57374;BME280;43964;53.890;25.340;2022-12-13T20:19:47;1015.3;;;0.2;62.5
57374;BME280;43964;53.890;25.340;2022-12-13T20:24:47;1015.3;;;0.2;62.5
57374;BME280;43964;53.890;25.340;2022-12-13T20:29:25;1015.4;;;0.3;62.4
57374;BME280;43964;53.890;25.340;2022-12-13T20:34:37;1015.4;;;0.3;62.5
57374;BME280;43964;53.890;25.340;2022-12-13T20:39:35;1015.4;;;0.3;62.5
57374;BME280;43964;53.890;25.340;2022-12-13T20:44:35;1015.4;;;0.4;62.4
57374;BME280;43964;53.890;25.340;2022-12-13T20:49:25;1015.5;;;0.4;62.3
57374;BME280;43964;53.890;25.340;2022-12-13T20:54:35;1015.5;;;0.4;62.3
57374;BME280;43964;53.890;25.340;2022-12-13T20:59:35;1015.5;;;0.4;62.2
57374;BME280;43964;53.890;25.340;2022-12-13T21:04:25;1015.4;;;0.4;62.2
57374;BME280;43964;53.890;25.340;2022-12-13T21:09:38;1015.4;;;0.3;62.1
57374;BME280;43964;53.890;25.340;2022-12-13T21:14:49;1015.5;;;0.3;62.1
57374;BME280;43964;53.890;25.340;2022-12-13T21:19:26;1015.5;;;0.2;62.1
57374;BME280;43964;53.890;25.340;2022-12-13T21:24:26;1015.5;;;0.2;62.2
57374;BME280;43964;53.890;25.340;2022-12-13T21:29:25;1015.5;;;0.2;62.1
57374;BME280;43964;53.890;25.340;2022-12-13T21:34:25;1015.6;;;0.2;62.1
57374;BME280;43964;53.890;25.340;2022-12-13T21:39:38;1015.6;;;0.3;61.9
57374;BME280;43964;53.890;25.340;2022-12-13T21:44:47;1015.7;;;0.4;61.8
57374;BME280;43964;53.890;25.340;2022-12-13T21:49:24;1015.7;;;0.4;61.9
57374;BME280;43964;53.890;25.340;2022-12-13T21:54:21;1015.7;;;0.4;61.9
57374;BME280;43964;53.890;25.340;2022-12-13T21:59:22;1015.7;;;0.4;61.9
57374;BME280;43964;53.890;25.340;2022-12-13T22:04:21;1015.8;;;0.4;61.8
57374;BME280;43964;53.890;25.340;2022-12-13T22:09:34;1015.8;;;0.5;61.7
57374;BME280;43964;53.890;25.340;2022-12-13T22:14:21;1015.8;;;0.5;61.6
57374;BME280;43964;53.890;25.340;2022-12-13T22:19:32;1015.8;;;0.5;61.5
57374;BME280;43964;53.890;25.340;2022-12-13T22:24:31;1015.8;;;0.6;61.5
57374;BME280;43964;53.890;25.340;2022-12-13T22:29:31;1015.8;;;0.6;61.5
57374;BME280;43964;53.890;25.340;2022-12-13T22:34:33;1015.8;;;0.6;61.5
57374;BME280;43964;53.890;25.340;2022-12-13T22:39:33;1015.8;;;0.6;61.6
57374;BME280;43964;53.890;25.340;2022-12-13T22:44:22;1015.8;;;0.6;61.7
57374;BME280;43964;53.890;25.340;2022-12-13T22:49:21;1015.9;;;0.6;61.6
57374;BME280;43964;53.890;25.340;2022-12-13T22:54:22;1015.9;;;0.6;61.5
57374;BME280;43964;53.890;25.340;2022-12-13T22:59:43;1015.9;;;0.6;61.5
57374;BME280;43964;53.890;25.340;2022-12-13T23:04:31;1015.9;;;0.6;61.6
57374;BME280;43964;53.890;25.340;2022-12-13T23:09:19;1015.9;;;0.6;61.6
57374;BME280;43964;53.890;25.340;2022-12-13T23:14:30;1015.9;;;0.6;61.6
57374;BME280;43964;53.890;25.340;2022-12-13T23:19:29;1015.9;;;0.5;61.6
57374;BME280;43964;53.890;25.340;2022-12-13T23:24:41;1015.9;;;0.5;61.7
57374;BME280;43964;53.890;25.340;2022-12-13T23:29:19;1015.9;;;0.5;61.7
57374;BME280;43964;53.890;25.340;2022-12-13T23:34:19;1015.9;;;0.5;61.8
57374;BME280;43964;53.890;25.340;2022-12-13T23:39:19;1015.9;;;0.5;61.8
57374;BME280;43964;53.890;25.340;2022-12-13T23:44:29;1015.8;;;0.5;61.8
57374;BME280;43964;53.890;25.340;2022-12-13T23:49:29;1015.8;;;0.4;61.9
57374;BME280;43964;53.890;25.340;2022-12-13T23:54:31;1015.8;;;0.4;61.9
57374;BME280;43964;53.890;25.340;2022-12-13T23:59:19;1015.8;;;0.3;62
